Time;durP1;ratioP1;P1;durP2;ratioP2;P2;SDS_P1;SDS_P2;PMS_P1;PMS_P2;Temp;Humidity;BMP_temperature;BMP_pressure;BME280_temperature;BME280_humidity;BME280_pressure;Samples;Min_cycle;Max_cycle;Signal;HPM_P1;HPM_P2
2022/11/26 00:02:57;;;;;;;1.93;0.60;;;;;;;;;;21153313;28;20208;-68
2022/11/26 00:12:59;;;;;;;2.83;0.97;;;;;;;;;;21152216;28;20237;-68
2022/11/26 00:23:02;;;;;;;4.43;1.50;;;;;;;;;;21153806;28;20211;-68
2022/11/26 00:33:03;;;;;;;2.77;0.93;;;;;;;;;;21153207;28;20199;-68
2022/11/26 00:43:06;;;;;;;1.73;0.53;;;;;;;;;;21151007;28;20587;-68
2022/11/26 00:53:10;;;;;;;3.40;1.50;;;;;;;;;;21093564;22;20229;-63
2022/11/26 01:03:12;;;;;;;4.60;1.63;;;;;;;;;;20951051;28;20407;-61
2022/11/26 01:13:14;;;;;;;1.67;0.93;;;;;;;;;;20956207;28;20209;-63
2022/11/26 01:23:17;;;;;;;2.20;1.07;;;;;;;;;;20950285;28;20352;-63
2022/11/26 01:33:19;;;;;;;2.73;0.83;;;;;;;;;;20982212;28;20229;-62
2022/11/26 01:43:24;;;;;;;2.23;0.90;;;;;;;;;;20948519;28;20209;-62
2022/11/26 01:53:26;;;;;;;5.03;1.60;;;;;;;;;;20964252;28;20692;-63
2022/11/26 02:03:33;;;;;;;1.23;0.67;;;6.60;99.90;;;;;;20979228;28;20225;-63
2022/11/26 02:13:35;;;;;;;2.90;0.83;;;;;;;;;;20945846;28;20213;-63
2022/11/26 02:23:50;;;;;;;3.90;0.57;;;6.60;99.90;;;;;;20961650;28;20247;-63
2022/11/26 02:34:10;;;;;;;3.03;0.70;;;;;;;;;;20960698;28;20669;-61
2022/11/26 02:44:14;;;;;;;2.63;0.57;;;;;;;;;;20960497;28;20571;-61
2022/11/26 02:54:18;;;;;;;1.70;0.73;;;6.60;99.90;;;;;;20986872;28;20250;-61
2022/11/26 03:04:26;;;;;;;2.10;0.63;;;;;;;;;;21009967;28;20236;-61
2022/11/26 03:14:28;;;;;;;1.90;0.83;;;;;;;;;;21024890;28;20223;-63
2022/11/26 03:24:30;;;;;;;1.27;0.57;;;6.50;99.90;;;;;;21023934;28;20242;-63
2022/11/26 03:34:32;;;;;;;0.90;0.40;;;;;;;;;;21005830;28;20205;-63
2022/11/26 03:44:35;;;;;;;1.50;0.60;;;;;;;;;;21022396;28;20216;-61
2022/11/26 03:54:37;;;;;;;2.23;0.60;;;;;;;;;;21021658;28;20632;-61
2022/11/26 04:04:38;;;;;;;0.30;0.30;;;6.40;99.90;;;;;;21021268;28;20289;-61
2022/11/26 04:14:40;;;;;;;1.30;0.50;;;;;;;;;;21020317;28;20265;-61
2022/11/26 04:24:42;;;;;;;1.23;0.50;;;;;;;;;;21020069;28;20648;-61
2022/11/26 04:34:44;;;;;;;5.80;0.90;;;;;;;;;;21019668;28;20250;-61
2022/11/26 04:44:45;;;;;;;2.23;0.90;;;;;;;;;;21018689;28;20217;-61
2022/11/26 04:54:48;;;;;;;1.47;0.40;;;;;;;;;;21034141;28;20282;-61
2022/11/26 05:04:50;;;;;;;2.50;1.03;;;;;;;;;;21017509;28;20625;-62
2022/11/26 05:14:52;;;;;;;0.93;0.53;;;;;;;;;;21017425;28;20234;-62
2022/11/26 05:24:54;;;;;;;1.50;0.40;;;;;;;;;;21032989;28;20236;-61
2022/11/26 05:34:56;;;;;;;0.70;0.50;;;;;;;;;;21033567;28;20583;-62
2022/11/26 05:44:59;;;;;;;1.33;0.60;;;;;;;;;;21032240;28;20316;-61
2022/11/26 05:55:01;;;;;;;1.13;0.50;;;;;;;;;;21015495;28;20398;-61
2022/11/26 06:05:03;;;;;;;0.67;0.60;;;5.60;99.90;;;;;;21028053;28;20632;-61
2022/11/26 06:15:05;;;;;;;1.20;0.60;;;5.50;99.90;;;;;;21029501;28;20270;-61
2022/11/26 06:25:09;;;;;;;1.03;0.87;;;5.40;99.90;;;;;;21044686;28;20236;-62
2022/11/26 06:35:11;;;;;;;1.37;0.70;;;;;;;;;;21044484;28;20532;-61
2022/11/26 06:45:14;;;;;;;3.77;0.93;;;;;;;;;;21043678;28;20262;-61
2022/11/26 06:55:16;;;;;;;1.40;0.60;;;;;;;;;;21103908;22;20223;-66
2022/11/26 07:05:18;;;;;;;1.67;0.60;;;;;;;;;;21082623;28;20706;-66
2022/11/26 07:15:20;;;;;;;2.70;0.80;;;;;;;;;;21107694;28;20296;-66
2022/11/26 07:25:22;;;;;;;1.70;0.90;;;;;;;;;;21109601;28;20220;-67
2022/11/26 07:35:24;;;;;;;2.67;1.20;;;;;;;;;;21145564;28;20224;-67
2022/11/26 07:45:26;;;;;;;2.00;0.53;;;;;;;;;;21141391;28;20227;-67
2022/11/26 07:55:28;;;;;;;4.17;1.80;;;;;;;;;;21123801;28;20227;-67
2022/11/26 08:05:30;;;;;;;3.27;1.50;;;;;;;;;;21106507;28;20623;-66
2022/11/26 08:15:33;;;;;;;2.80;1.27;;;;;;;;;;21122201;28;20670;-67
2022/11/26 08:25:34;;;;;;;2.67;1.07;;;5.60;99.90;;;;;;21121148;28;20215;-67
2022/11/26 08:35:37;;;;;;;1.43;1.00;;;6.50;99.90;;;;;;21068688;28;20220;-67
2022/11/26 08:45:40;;;;;;;3.20;1.10;;;;;;;;;;20999562;28;20224;-67
2022/11/26 08:55:42;;;;;;;1.90;0.60;;;;;;;;;;20994385;28;20224;-67
2022/11/26 09:05:44;;;;;;;2.37;0.50;;;;;;;;;;21045726;28;20266;-67
2022/11/26 09:15:46;;;;;;;2.47;1.00;;;;;;;;;;20996362;28;20679;-67
2022/11/26 09:25:49;;;;;;;3.57;1.20;;;;;;;;;;20995424;28;20220;-67
2022/11/26 09:35:52;;;;;;;1.50;0.97;;;;;;;;;;21070834;28;20225;-67
2022/11/26 09:45:58;;;;;;;2.50;1.17;;;7.10;99.90;;;;;;21060167;28;20225;-67
2022/11/26 09:56:00;;;;;;;6.07;2.10;;;;;;;;;;21059231;28;20265;-67
2022/11/26 10:06:08;;;;;;;2.30;1.23;;;;;;;;;;21075775;28;20216;-67
2022/11/26 10:16:15;;;;;;;2.47;1.10;;;;;;;;;;21056489;28;20189;-67
2022/11/26 10:26:23;;;;;;;1.83;1.03;;;7.60;99.90;;;;;;21055571;28;20208;-67
2022/11/26 10:36:32;;;;;;;2.30;0.90;;;;;;;;;;21038068;28;20736;-67
2022/11/26 10:46:35;;;;;;;1.43;0.80;;;;;;;;;;21049950;28;20690;-69
2022/11/26 10:56:41;;;;;;;2.00;1.20;;;;;;;;;;21088929;28;20374;-67
2022/11/26 11:06:43;;;;;;;3.80;1.40;;;;;;;;;;21107142;28;20215;-67
2022/11/26 11:16:46;;;;;;;2.57;1.27;;;;;;;;;;21139369;28;20216;-67
2022/11/26 11:26:52;;;;;;;2.70;0.80;;;;;;;;;;21109307;28;20220;-67
2022/11/26 11:37:14;;;;;;;2.70;0.97;;;7.20;99.90;;;;;;21056881;28;20638;-68
2022/11/26 11:47:29;;;;;;;1.40;0.90;;;;;;;;;;21100283;28;20219;-67
2022/11/26 11:57:31;;;;;;;3.77;1.80;;;;;;;;;;21052325;28;20216;-67
2022/11/26 12:07:38;;;;;;;3.00;1.70;;;;;;;;;;21068448;28;20590;-67
2022/11/26 12:17:40;;;;;;;2.30;0.93;;;;;;;;;;21050394;28;20626;-67
2022/11/26 12:27:49;;;;;;;3.53;1.53;;;7.20;99.90;;;;;;21091715;28;20758;-67
2022/11/26 12:37:58;;;;;;;3.63;2.00;;;7.20;99.90;;;;;;21117587;28;20228;-67
2022/11/26 12:48:05;;;;;;;8.10;2.73;;;7.20;99.90;;;;;;21118476;28;20216;-67
2022/11/26 12:58:17;;;;;;;3.97;1.43;;;;;;;;;;21115827;28;20231;-67
2022/11/26 13:08:38;;;;;;;3.20;1.53;;;;;;;;;;21045351;28;20838;-66
2022/11/26 13:18:48;;;;;;;3.40;1.70;;;;;;;;;;21120071;28;20212;-66
2022/11/26 13:28:53;;;;;;;2.87;1.80;;;;;;;;;;21104344;28;20764;-66
2022/11/26 13:38:58;;;;;;;3.07;1.67;;;;;;;;;;21096425;22;20229;-68
2022/11/26 13:48:59;;;;;;;3.20;1.83;;;;;;;;;;21080925;28;20217;-70
2022/11/26 13:59:04;;;;;;;4.50;1.77;;;;;;;;;;21080689;28;20208;-69
2022/11/26 14:09:26;;;;;;;6.17;1.77;;;;;;;;;;21079533;28;20232;-69
2022/11/26 14:19:40;;;;;;;1.50;1.10;;;;;;;;;;21079121;28;20791;-69
2022/11/26 14:29:43;;;;;;;3.67;1.50;;;7.20;99.90;;;;;;21078706;28;20232;-69
2022/11/26 14:39:45;;;;;;;3.80;1.77;;;;;;;;;;21077072;28;20285;-69
2022/11/26 14:50:01;;;;;;;2.30;1.33;;;7.20;99.90;;;;;;21075959;28;20258;-69
2022/11/26 15:00:06;;;;;;;4.20;1.23;;;;;;;;;;21075808;28;20261;-69
2022/11/26 15:10:14;;;;;;;3.17;1.60;;;;;;;;;;21075478;28;20220;-69
2022/11/26 15:20:16;;;;;;;2.37;0.80;;;7.50;99.90;;;;;;21074529;28;20196;-69
2022/11/26 15:30:23;;;;;;;2.00;0.90;;;7.20;99.90;;;;;;21073761;28;20630;-69
2022/11/26 15:40:45;;;;;;;1.73;1.40;;;;;;;;;;21072743;28;20220;-69
2022/11/26 15:50:49;;;;;;;2.53;1.37;;;;;;;;;;21050504;28;20192;-69
2022/11/26 16:00:53;;;;;;;2.83;1.57;;;;;;;;;;21060748;28;20588;-69
2022/11/26 16:10:55;;;;;;;2.60;1.53;;;7.20;99.90;;;;;;21063953;28;20217;-69
2022/11/26 16:21:03;;;;;;;3.17;1.70;;;7.00;99.90;;;;;;21059719;28;20217;-69
2022/11/26 16:31:07;;;;;;;5.03;2.00;;;;;;;;;;21050446;28;20243;-69
2022/11/26 16:41:12;;;;;;;9.53;3.67;;;7.20;99.90;;;;;;21052485;28;20240;-69
2022/11/26 16:51:15;;;;;;;4.83;2.13;;;;;;;;;;21040699;28;20699;-69
2022/11/26 17:01:17;;;;;;;3.77;2.20;;;;;;;;;;21049560;28;20262;-68
2022/11/26 17:11:19;;;;;;;2.97;1.57;;;;;;;;;;21035774;28;20221;-68
2022/11/26 17:21:20;;;;;;;3.40;1.43;;;;;;;;;;21031918;28;20297;-68
2022/11/26 17:31:22;;;;;;;2.43;1.67;;;;;;;;;;21045507;28;20266;-68
2022/11/26 17:41:24;;;;;;;4.73;1.90;;;;;;;;;;21054377;28;20231;-68
2022/11/26 17:51:26;;;;;;;4.73;2.53;;;;;;;;;;21136681;28;20208;-68
2022/11/26 18:01:28;;;;;;;8.57;2.73;;;;;;;;;;21125497;28;20562;-68
2022/11/26 18:11:42;;;;;;;1.77;1.30;;;;;;;;;;21071126;28;20238;-68
2022/11/26 18:21:44;;;;;;;4.23;2.00;;;;;;;;;;21053096;28;20212;-68
2022/11/26 18:31:46;;;;;;;3.23;1.50;;;;;;;;;;21075985;28;20768;-69
2022/11/26 18:41:47;;;;;;;3.27;1.93;;;;;;;;;;21076364;28;20221;-68
2022/11/26 18:51:49;;;;;;;4.00;2.40;;;;;;;;;;21075885;28;20229;-67
2022/11/26 19:01:51;;;;;;;2.73;1.80;;;;;;;;;;21075077;28;20240;-67
2022/11/26 19:11:54;;;;;;;2.87;1.77;;;;;;;;;;21056612;28;20224;-69
2022/11/26 19:21:56;;;;;;;6.87;3.47;;;;;;;;;;21049936;28;20216;-68
2022/11/26 19:31:57;;;;;;;2.60;1.77;;;;;;;;;;21073081;28;20662;-68
2022/11/26 19:41:59;;;;;;;5.17;3.50;;;;;;;;;;21138652;28;20220;-67
2022/11/26 19:52:01;;;;;;;3.17;1.73;;;;;;;;;;21156456;28;20215;-69
2022/11/26 20:02:03;;;;;;;4.50;1.20;;;;;;;;;;21120253;28;20242;-69
2022/11/26 20:12:04;;;;;;;1.90;1.37;;;4.30;99.90;;;;;;21071160;28;20196;-69
2022/11/26 20:22:07;;;;;;;4.23;1.60;;;;;;;;;;21051933;28;20228;-69
2022/11/26 20:32:08;;;;;;;3.37;1.47;;;;;;;;;;21100798;22;20223;-62
2022/11/26 20:42:10;;;;;;;2.83;1.40;;;;;;;;;;21027451;28;20287;-62
2022/11/26 20:52:13;;;;;;;2.97;1.83;;;;;;;;;;21018869;28;20220;-63
2022/11/26 21:02:14;;;;;;;3.17;1.70;;;;;;;;;;21001716;28;20232;-62
2022/11/26 21:12:17;;;;;;;2.60;1.63;;;;;;;;;;21033775;28;20582;-62
2022/11/26 21:22:19;;;;;;;2.93;1.73;;;;;;;;;;21000665;28;20261;-62
2022/11/26 21:32:20;;;;;;;4.17;2.03;;;;;;;;;;21025626;28;20349;-63
2022/11/26 21:42:22;;;;;;;4.93;2.47;;;;;;;;;;21032437;28;20224;-62
2022/11/26 21:52:24;;;;;;;3.33;2.00;;;;;;;;;;21031737;28;20221;-63
2022/11/26 22:02:26;;;;;;;4.97;1.80;;;;;;;;;;21014543;28;20220;-63
2022/11/26 22:12:29;;;;;;;3.93;1.30;;;;;;;;;;21046756;28;20258;-62
2022/11/26 22:22:31;;;;;;;2.23;1.20;;;;;;;;;;21029704;28;20310;-63
2022/11/26 22:32:34;;;;;;;2.20;1.30;;;6.00;99.90;;;;;;21012559;28;20265;-63
2022/11/26 22:42:36;;;;;;;3.00;1.57;;;;;;;;;;21026990;28;20216;-63
2022/11/26 22:52:38;;;;;;;4.17;1.63;;;;;;;;;;21027566;28;20246;-63
2022/11/26 23:02:40;;;;;;;2.57;1.70;;;;;;;;;;21026562;28;20224;-63
2022/11/26 23:12:42;;;;;;;4.27;1.80;;;;;;;;;;21008753;28;20253;-62
2022/11/26 23:22:44;;;;;;;3.20;1.93;;;;;;;;;;21008015;28;20273;-62
2022/11/26 23:32:46;;;;;;;2.30;1.20;;;;;;;;;;21007638;28;20216;-62
2022/11/26 23:42:48;;;;;;;2.50;1.50;;;;;;;;;;21023204;28;20290;-62
2022/11/26 23:52:50;;;;;;;3.80;1.50;;;;;;;;;;21005864;28;20384;-62
